Time;durP1;ratioP1;P1;durP2;ratioP2;P2;SDS_P1;SDS_P2;PMS_P1;PMS_P2;Temp;Humidity;BMP_temperature;BMP_pressure;BME280_temperature;BME280_humidity;BME280_pressure;Samples;Min_cycle;Max_cycle;Signal;HPM_P1;HPM_P2
2022/08/09 00:00:18;;;;;;;11.05;9.88;;;;;;;;;;5080464;28;20043;-69
2022/08/09 00:02:45;;;;;;;13.32;10.98;;;;;;;;;;5088047;28;20044;-69
2022/08/09 00:05:11;;;;;;;11.07;9.90;;;;;;;;;;5088232;28;20025;-69
2022/08/09 00:07:37;;;;;;;15.05;9.98;;;;;;;;;;5075466;28;20024;-69
2022/08/09 00:10:03;;;;;;;16.30;14.32;;;;;;;;;;5075332;28;20428;-69
2022/08/09 00:12:29;;;;;;;9.80;8.80;;;;;;;;;;5075215;28;20072;-69
2022/08/09 00:14:56;;;;;;;9.55;8.65;;;;;;;;;;5073402;28;20040;-70
2022/08/09 00:17:23;;;;;;;10.90;9.82;;;;;;;;;;5075103;28;20033;-69
2022/08/09 00:19:49;;;;;;;10.13;9.13;;;;;;;;;;5075591;28;20017;-69
2022/08/09 00:22:16;;;;;;;12.65;11.40;;;;;;;;;;5075098;28;20115;-69
2022/08/09 00:24:42;;;;;;;10.48;9.48;;;;;;;;;;5074909;28;20421;-69
2022/08/09 00:27:08;;;;;;;13.13;9.00;;;;;;;;;;5075076;28;20445;-69
2022/08/09 00:29:34;;;;;;;11.23;9.15;;;;;;;;;;5074884;28;20024;-68
2022/08/09 00:32:00;;;;;;;10.20;9.20;;;;;;;;;;5074780;28;20040;-69
2022/08/09 00:34:26;;;;;;;9.93;8.93;;;;;;;;;;5087581;28;20028;-68
2022/08/09 00:36:52;;;;;;;9.95;8.95;;;;;;;;;;5075791;28;20093;-68
2022/08/09 00:39:18;;;;;;;11.25;9.23;;;;;;;;;;5074701;28;20027;-69
2022/08/09 00:41:45;;;;;;;9.23;8.32;;;;;;;;;;5074567;28;20028;-69
2022/08/09 00:44:11;;;;;;;9.27;7.90;;;;;;;;;;5072916;28;20497;-69
2022/08/09 00:46:37;;;;;;;9.43;8.25;;;;;;;;;;5074488;28;20016;-68
2022/08/09 00:49:03;;;;;;;10.00;8.50;;;;;;;;;;5074319;28;20459;-68
2022/08/09 00:51:29;;;;;;;8.75;7.95;;;;;;;;;;5074468;28;20032;-69
2022/08/09 00:53:55;;;;;;;9.18;7.75;;;;;;;;;;5074255;28;20020;-68
2022/08/09 00:56:22;;;;;;;8.27;7.47;;;;;;;;;;5074362;28;20079;-69
2022/08/09 00:58:49;;;;;;;8.18;7.38;;;;;;;;;;5074276;28;20463;-69
2022/08/09 01:01:18;;;;;;;8.07;7.28;;;;;;;;;;5074199;28;20501;-69
2022/08/09 01:03:50;;;;;;;8.38;7.50;;;;;;;;;;5074305;28;20025;-69
2022/08/09 01:06:21;;;;;;;8.20;7.40;;;;;;;;;;5074621;28;20025;-68
2022/08/09 01:09:07;;;;;;;7.80;7.00;;;;;;;;;;5074037;28;20033;-69
2022/08/09 01:11:33;;;;;;;7.18;6.47;;;;;;;;;;5066868;28;20135;-66
2022/08/09 01:14:19;;;;;;;6.50;5.80;;;;;;;;;;5073932;28;20468;-66
2022/08/09 01:16:46;;;;;;;7.78;6.35;;;;;;;;;;5062513;28;20082;-69
2022/08/09 01:19:24;;;;;;;8.73;5.80;;;;;;;;;;5073584;28;20487;-70
2022/08/09 01:22:08;;;;;;;6.70;6.10;;;;;;;;;;5074009;28;20123;-69
2022/08/09 01:24:39;;;;;;;6.97;6.00;;;;;;;;;;5073677;28;20070;-70
2022/08/09 01:27:07;;;;;;;6.70;6.05;;;;;;;;;;5073866;28;20024;-70
2022/08/09 01:30:02;;;;;;;6.18;5.57;;;;;;;;;;5073553;28;20016;-69
2022/08/09 01:32:39;;;;;;;6.55;5.85;;;;;;;;;;5046266;28;20471;-70
2022/08/09 01:35:07;;;;;;;7.13;6.03;;;;;;;;;;5030431;28;20116;-69
2022/08/09 01:37:34;;;;;;;7.03;5.82;;;;;;;;;;5041944;28;20041;-69
2022/08/09 01:40:02;;;;;;;6.97;6.20;;;;;;;;;;5051388;28;20024;-71
2022/08/09 01:42:29;;;;;;;7.68;6.25;;;;;;;;;;5051327;28;20052;-71
2022/08/09 01:44:55;;;;;;;7.60;6.13;;;;;;;;;;5051215;28;20482;-71
2022/08/09 01:47:21;;;;;;;6.63;6.03;;;;;;;;;;5051540;28;20526;-71
2022/08/09 01:49:49;;;;;;;7.25;6.10;;;;;;;;;;5021580;28;20046;-71
2022/08/09 01:52:17;;;;;;;6.35;5.75;;;;;;;;;;5050456;28;20399;-71
2022/08/09 01:54:48;;;;;;;7.30;6.60;;;;;;;;;;5051243;28;20017;-70
2022/08/09 01:57:16;;;;;;;7.85;6.32;;;;;;;;;;5051112;28;20159;-71
2022/08/09 01:59:43;;;;;;;7.50;6.65;;;;;;;;;;5050479;28;20107;-71
2022/08/09 02:02:10;;;;;;;6.90;6.20;;;;;;;;;;5050934;28;20384;-71
2022/08/09 02:04:38;;;;;;;7.38;6.68;;;;;;;;;;5050959;28;20514;-71
2022/08/09 02:07:10;;;;;;;8.98;6.70;;;;;;;;;;5051002;28;20040;-71
2022/08/09 02:09:38;;;;;;;7.75;7.05;;;;;;;;;;5068938;28;20483;-70
2022/08/09 02:12:06;;;;;;;7.47;6.25;;;;;;;;;;5072931;28;20044;-71
2022/08/09 02:14:33;;;;;;;8.27;7.45;;;;;;;;;;5072943;28;20425;-71
2022/08/09 02:16:59;;;;;;;8.00;7.03;;;;;;;;;;5072917;28;20028;-71
2022/08/09 02:19:26;;;;;;;7.60;6.90;;;;;;;;;;5072879;28;20074;-71
2022/08/09 02:21:55;;;;;;;8.77;7.70;;;;;;;;;;5072973;28;20036;-71
2022/08/09 02:24:23;;;;;;;8.13;7.32;;;;;;;;;;5072674;28;20052;-70
2022/08/09 02:26:51;;;;;;;8.45;7.60;;;;;;;;;;5072820;28;20086;-70
2022/08/09 02:29:41;;;;;;;9.18;8.35;;;;;;;;;;5072724;28;20024;-69
2022/08/09 02:32:08;;;;;;;7.47;6.78;;;;;;;;;;5042337;28;20052;-70
2022/08/09 02:34:35;;;;;;;8.45;7.60;;;;;;;;;;5050389;28;20045;-69
2022/08/09 02:37:03;;;;;;;10.55;7.03;;;;;;;;;;5036375;28;20049;-69
2022/08/09 02:39:30;;;;;;;7.85;7.05;;;;;;;;;;5050623;28;20029;-69
2022/08/09 02:41:58;;;;;;;8.75;6.97;;;;;;;;;;5050462;28;20399;-69
2022/08/09 02:44:27;;;;;;;8.57;7.22;;;;;;;;;;5050757;28;20487;-69
2022/08/09 02:46:54;;;;;;;8.73;7.82;;;;;;;;;;5050409;28;20025;-70
2022/08/09 02:49:20;;;;;;;8.65;7.75;;;;;;;;;;5050492;28;20135;-69
2022/08/09 02:51:49;;;;;;;9.18;7.50;;;;;;;;;;5050162;28;20037;-70
2022/08/09 02:54:16;;;;;;;9.10;8.20;;;;;;;;;;5050538;28;20048;-69
2022/08/09 02:56:43;;;;;;;10.40;9.40;;;;;;;;;;5050437;28;20037;-69
2022/08/09 02:59:10;;;;;;;11.73;9.57;;;;;;;;;;5036870;28;20179;-69
2022/08/09 03:01:37;;;;;;;10.30;9.18;;;;;;;;;;5050236;28;20111;-69
2022/08/09 03:04:05;;;;;;;10.38;9.38;;;;;;;;;;5050153;28;20021;-69
2022/08/09 03:06:31;;;;;;;11.00;9.90;;;;;;;;;;5050313;28;20136;-69
2022/08/09 03:08:58;;;;;;;12.57;10.52;;;;;;;;;;5060286;28;20487;-69
2022/08/09 03:11:25;;;;;;;11.85;10.65;;;;;;;;;;5074855;28;20036;-69
2022/08/09 03:13:52;;;;;;;12.35;10.75;;;;;;;;;;5076349;28;20382;-69
2022/08/09 03:16:18;;;;;;;12.18;10.93;;;;;;;;;;5076210;28;20077;-69
2022/08/09 03:18:46;;;;;;;11.60;10.50;;;;;;;;;;5076329;28;20107;-69
2022/08/09 03:21:12;;;;;;;12.98;11.57;;;;;;;;;;5076102;28;20016;-69
2022/08/09 03:23:38;;;;;;;13.20;11.80;;;;;;;;;;5076128;28;20028;-68
2022/08/09 03:26:04;;;;;;;12.95;11.65;;;;;;;;;;5076334;28;20044;-69
2022/08/09 03:28:31;;;;;;;12.25;11.05;;;;;;;;;;5075951;28;20027;-68
2022/08/09 03:30:57;;;;;;;12.48;11.18;;;;;;;;;;5075827;28;20025;-68
2022/08/09 03:33:24;;;;;;;13.07;10.50;;;;;;;;;;5080135;28;20028;-68
2022/08/09 03:35:50;;;;;;;13.20;11.27;;;;;;;;;;5085448;28;20093;-67
2022/08/09 03:38:20;;;;;;;12.02;10.80;;;;;;;;;;5075899;28;20025;-68
2022/08/09 03:40:46;;;;;;;12.40;10.65;;;;;;;;;;5075867;28;20027;-68
2022/08/09 03:43:12;;;;;;;12.55;11.25;;;;;;;;;;5075541;28;20033;-70
2022/08/09 03:45:38;;;;;;;12.07;10.68;;;;;;;;;;5077791;28;20429;-69
2022/08/09 03:48:04;;;;;;;14.90;12.27;;;;;;;;;;5094098;28;20474;-69
2022/08/09 03:50:30;;;;;;;16.20;12.43;;;;;;;;;;5094662;28;20027;-68
2022/08/09 03:52:59;;;;;;;13.23;11.82;;;;;;;;;;5080865;28;20059;-68
2022/08/09 03:55:26;;;;;;;14.02;12.55;;;;;;;;;;5075676;28;20029;-68
2022/08/09 03:57:52;;;;;;;13.85;12.43;;;;;;;;;;5075741;28;20468;-68
2022/08/09 04:00:19;;;;;;;14.93;13.10;;;;;;;;;;5075998;28;20094;-68
2022/08/09 04:02:45;;;;;;;13.88;12.52;;;;;;;;;;5075479;28;20017;-68
2022/08/09 04:05:12;;;;;;;13.88;11.95;;;;;;;;;;5075478;28;20024;-68
2022/08/09 04:07:38;;;;;;;13.80;12.50;;;;;;;;;;5075356;28;20093;-68
2022/08/09 04:10:04;;;;;;;14.82;13.23;;;;;;;;;;5075434;28;20027;-68
2022/08/09 04:12:42;;;;;;;15.15;12.80;;;;;;;;;;5075070;28;20040;-68
2022/08/09 04:15:08;;;;;;;16.25;14.55;;;;;;;;;;5075395;28;20052;-68
2022/08/09 04:17:35;;;;;;;16.50;14.65;;;;;;;;;;5075032;28;20024;-68
2022/08/09 04:20:01;;;;;;;16.33;14.70;;;;;;;;;;5075165;28;20031;-68
2022/08/09 04:22:27;;;;;;;16.50;14.90;;;;;;;;;;5073067;28;20054;-68
2022/08/09 04:24:53;;;;;;;16.10;14.50;;;;;;;;;;5075096;28;20017;-67
2022/08/09 04:27:19;;;;;;;17.73;16.02;;;;;;;;;;5075187;28;20505;-68
2022/08/09 04:29:45;;;;;;;17.08;15.35;;;;;;;;;;5074941;28;20027;-67
2022/08/09 04:32:12;;;;;;;17.48;15.00;;;;;;;;;;5081209;28;20501;-67
2022/08/09 04:34:38;;;;;;;17.40;15.23;;;;;;;;;;5094687;28;20028;-67
2022/08/09 04:37:04;;;;;;;17.92;15.93;;;;;;;;;;5088980;28;20525;-68
2022/08/09 04:39:30;;;;;;;19.13;16.88;;;;;;;;;;5082547;28;20032;-68
2022/08/09 04:41:56;;;;;;;18.98;16.27;;;;;;;;;;5074751;28;20054;-68
2022/08/09 04:44:22;;;;;;;19.17;17.35;;;;;;;;;;5074906;28;20023;-68
2022/08/09 04:46:48;;;;;;;18.15;16.00;;;;;;;;;;5087802;28;20032;-69
2022/08/09 04:49:14;;;;;;;18.98;17.08;;;;;;;;;;5074565;28;20016;-69
2022/08/09 04:51:40;;;;;;;23.20;17.63;;;;;;;;;;5074603;28;20571;-70
2022/08/09 04:54:06;;;;;;;18.42;16.55;;;;;;;;;;5074478;28;20052;-69
2022/08/09 04:56:32;;;;;;;18.35;16.55;;;;;;;;;;5085145;28;20024;-70
2022/08/09 04:58:58;;;;;;;18.08;16.23;;;;;;;;;;5085787;28;20017;-70
2022/08/09 05:01:24;;;;;;;18.88;16.83;;;;;;;;;;5084612;28;20046;-70
2022/08/09 05:03:50;;;;;;;18.23;16.33;;;;;;;;;;5086868;28;20082;-69
2022/08/09 05:06:17;;;;;;;17.65;15.65;;;;;;;;;;5074646;28;20132;-69
2022/08/09 05:08:43;;;;;;;18.35;15.63;;;;;;;;;;5074070;28;20099;-69
2022/08/09 05:11:09;;;;;;;17.08;15.35;;;;;;;;;;5077833;28;20053;-69
2022/08/09 05:13:35;;;;;;;17.00;15.20;;;;;;;;;;5090868;28;20077;-69
2022/08/09 05:16:01;;;;;;;18.70;14.02;;;;;;;;;;5074710;28;20092;-70
2022/08/09 05:18:32;;;;;;;27.65;22.30;;;;;;;;;;5073149;28;20059;-71
2022/08/09 05:20:59;;;;;;;16.38;14.73;;;;;;;;;;5073986;28;20013;-71
2022/08/09 05:23:25;;;;;;;15.57;13.15;;;;;;;;;;5072593;28;20384;-70
2022/08/09 05:25:51;;;;;;;13.07;11.73;;;;;;;;;;5077961;28;20055;-68
2022/08/09 05:28:20;;;;;;;15.50;12.48;;;;;;;;;;5079759;28;20586;-68
2022/08/09 05:30:47;;;;;;;12.80;11.15;;;;;;;;;;5077441;28;20025;-69
2022/08/09 05:33:13;;;;;;;12.23;11.02;;;;;;;;;;5079695;28;20032;-68
2022/08/09 05:35:39;;;;;;;14.82;11.23;;;;;;;;;;5084308;28;20482;-68
2022/08/09 05:38:05;;;;;;;13.40;10.93;;;;;;;;;;5073578;28;20032;-68
2022/08/09 05:40:31;;;;;;;13.23;10.18;;;;;;;;;;5073645;28;20021;-68
2022/08/09 05:42:57;;;;;;;13.13;10.75;;;;;;;;;;5073564;28;20028;-68
2022/08/09 05:45:23;;;;;;;12.07;10.75;;;;;;;;;;5074732;28;20024;-69
2022/08/09 05:47:49;;;;;;;16.63;11.20;;;;;;;;;;5080407;28;20025;-68
2022/08/09 05:50:15;;;;;;;15.32;10.57;;;;;;;;;;5073123;28;20020;-69
2022/08/09 05:52:42;;;;;;;12.32;10.18;;;;;;;;;;5073460;28;20036;-69
2022/08/09 05:55:09;;;;;;;13.30;10.88;;;;;;;;;;5073194;28;20051;-71
2022/08/09 05:57:35;;;;;;;11.15;10.13;;;;;;;;;;5080576;28;20103;-69
2022/08/09 06:00:02;;;;;;;10.80;9.82;;;;;;;;;;5080083;28;20024;-69
2022/08/09 06:02:28;;;;;;;11.00;9.63;;;;;;;;;;5073475;28;20537;-68
2022/08/09 06:04:54;;;;;;;12.18;10.57;;;;;;;;;;5073200;28;20040;-68
2022/08/09 06:07:20;;;;;;;14.30;11.68;;;;;;;;;;5073000;28;20032;-68
2022/08/09 06:09:46;;;;;;;29.38;17.95;;;;;;;;;;5073094;28;20021;-68
2022/08/09 06:12:12;;;;;;;12.23;11.02;;;;;;;;;;5072857;28;20107;-68
2022/08/09 06:14:38;;;;;;;12.25;9.65;;;;;;;;;;5073143;28;20045;-68
2022/08/09 06:17:04;;;;;;;14.27;10.65;;;;;;;;;;5072975;28;20025;-68
2022/08/09 06:19:30;;;;;;;11.07;9.88;;;;;;;;;;5072618;28;20020;-68
2022/08/09 06:21:57;;;;;;;12.45;10.85;;;;;;;;;;5073019;28;20024;-68
2022/08/09 06:24:23;;;;;;;14.00;11.55;;;;;;;;;;5072955;28;20360;-68
2022/08/09 06:26:49;;;;;;;13.23;10.15;;;;;;;;;;5072831;28;20103;-68
2022/08/09 06:29:15;;;;;;;15.18;10.40;;;;;;;;;;5072781;28;20035;-69
2022/08/09 06:31:41;;;;;;;13.20;9.65;;;;;;;;;;5070879;28;20055;-68
2022/08/09 06:34:07;;;;;;;10.85;9.75;;;;;;;;;;5082764;28;20471;-68
2022/08/09 06:36:33;;;;;;;12.38;10.25;;;;;;;;;;5076197;28;20087;-69
2022/08/09 06:38:59;;;;;;;10.85;9.65;;;;;;;;;;5072788;28;20067;-69
2022/08/09 06:41:25;;;;;;;11.75;9.35;;;;;;;;;;5072668;28;20029;-69
2022/08/09 06:43:51;;;;;;;13.00;9.57;;;;;;;;;;5072898;28;20044;-68
2022/08/09 06:46:17;;;;;;;9.82;8.82;;;;;;;;;;5072219;28;20025;-69
2022/08/09 06:48:43;;;;;;;12.43;9.10;;;;;;;;;;5072368;28;20040;-69
2022/08/09 06:51:10;;;;;;;15.95;10.77;;;;;;;;;;5072772;28;20376;-68
2022/08/09 06:53:36;;;;;;;11.95;10.63;;;;;;;;;;5072610;28;20090;-69
2022/08/09 06:56:03;;;;;;;12.43;10.25;;;;;;;;;;5072660;28;20020;-69
2022/08/09 06:58:29;;;;;;;13.52;9.98;;;;;;;;;;5072211;28;20078;-69
2022/08/09 07:00:55;;;;;;;11.00;9.82;;;;;;;;;;5071913;28;20539;-69
2022/08/09 07:03:22;;;;;;;13.27;11.88;;;;;;;;;;5071845;28;20012;-69
2022/08/09 07:05:48;;;;;;;11.73;10.52;;;;;;;;;;5072170;28;20029;-69
2022/08/09 07:08:14;;;;;;;11.43;9.75;;;;;;;;;;5071880;28;20024;-69
2022/08/09 07:10:40;;;;;;;11.20;9.68;;;;;;;;;;5071780;28;20033;-69
2022/08/09 07:13:06;;;;;;;12.25;9.82;;;;;;;;;;5070574;28;20491;-69
2022/08/09 07:15:32;;;;;;;12.88;9.75;;;;;;;;;;5071934;28;20150;-69
2022/08/09 07:17:58;;;;;;;13.23;10.20;;;;;;;;;;5070757;28;20036;-68
2022/08/09 07:20:24;;;;;;;12.95;9.98;;;;;;;;;;5083955;28;20028;-69
2022/08/09 07:22:51;;;;;;;29.08;21.20;;;;;;;;;;5073059;28;20454;-68
2022/08/09 07:25:17;;;;;;;50.42;38.45;;;;;;;;;;5070975;28;20124;-66
2022/08/09 07:27:44;;;;;;;28.23;21.70;;;;;;;;;;5074569;28;20024;-69
2022/08/09 07:30:12;;;;;;;24.58;19.40;;;;;;;;;;5072348;28;20025;-70
2022/08/09 07:32:38;;;;;;;16.73;11.98;;;;;;;;;;5071913;28;20028;-69
2022/08/09 07:35:05;;;;;;;28.35;20.70;;;;;;;;;;5085943;28;20012;-69
2022/08/09 07:37:31;;;;;;;18.13;14.57;;;;;;;;;;5072140;28;20036;-70
2022/08/09 07:39:57;;;;;;;15.23;11.85;;;;;;;;;;5072009;28;20051;-70
2022/08/09 07:42:23;;;;;;;18.45;15.15;;;;;;;;;;5072229;28;20048;-69
2022/08/09 07:44:50;;;;;;;12.98;11.27;;;;;;;;;;5072059;28;20041;-69
2022/08/09 07:47:16;;;;;;;11.55;10.23;;;;;;;;;;5071959;28;20033;-70
2022/08/09 07:49:42;;;;;;;13.07;10.38;;;;;;;;;;5072586;28;20017;-69
2022/08/09 07:52:08;;;;;;;11.05;9.48;;;;;;;;;;5071998;28;20028;-70
2022/08/09 07:54:34;;;;;;;16.88;12.80;;;;;;;;;;5071993;28;20517;-70
2022/08/09 07:57:00;;;;;;;14.48;11.98;;;;;;;;;;5070293;28;20039;-69
2022/08/09 07:59:26;;;;;;;13.60;10.25;;;;;;;;;;5075746;28;20462;-69
2022/08/09 08:01:54;;;;;;;12.15;10.23;;;;;;;;;;5075282;28;20040;-70
2022/08/09 08:04:21;;;;;;;14.23;10.60;;;;;;;;;;5073870;28;20035;-70
2022/08/09 08:06:47;;;;;;;10.68;9.48;;;;;;;;;;5075160;28;20035;-69
2022/08/09 08:09:13;;;;;;;16.00;10.50;;;;;;;;;;5075480;28;20023;-69
2022/08/09 08:11:39;;;;;;;11.75;9.80;;;;;;;;;;5075320;28;20072;-70
2022/08/09 08:14:06;;;;;;;12.57;9.63;;;;;;;;;;5075446;28;20017;-70
2022/08/09 08:16:32;;;;;;;10.77;9.68;;;;;;;;;;5074895;28;20024;-69
2022/08/09 08:18:58;;;;;;;10.65;9.55;;;;;;;;;;5074954;28;20025;-70
2022/08/09 08:21:24;;;;;;;11.68;9.77;;;;;;;;;;5074926;28;20498;-71
2022/08/09 08:23:51;;;;;;;16.30;10.35;;;;;;;;;;5075196;28;20028;-70
2022/08/09 08:26:17;;;;;;;10.48;9.38;;;;;;;;;;5074883;28;20031;-71
2022/08/09 08:28:43;;;;;;;15.90;11.55;;;;;;;;;;5074937;28;20021;-69
2022/08/09 08:31:09;;;;;;;14.10;11.40;;;;;;;;;;5074826;28;20027;-70
2022/08/09 08:33:35;;;;;;;11.43;10.23;;;;;;;;;;5080427;28;20031;-70
2022/08/09 08:36:01;;;;;;;13.05;9.10;;;;;;;;;;5082922;28;20113;-70
2022/08/09 08:38:30;;;;;;;11.10;9.48;;;;;;;;;;5074697;28;20024;-70
2022/08/09 08:40:57;;;;;;;12.93;9.50;;;;;;;;;;5074777;28;20108;-70
2022/08/09 08:43:25;;;;;;;9.65;8.68;;;;;;;;;;5074606;28;20082;-71
2022/08/09 08:45:51;;;;;;;13.02;8.68;;;;;;;;;;5074754;28;20024;-70
2022/08/09 08:48:17;;;;;;;11.30;10.20;;;;;;;;;;5074353;28;20024;-70
2022/08/09 08:50:45;;;;;;;11.38;9.38;;;;;;;;;;5074301;28;20052;-70
2022/08/09 08:53:12;;;;;;;11.35;8.93;;;;;;;;;;5074132;28;20033;-70
2022/08/09 08:55:38;;;;;;;9.82;8.82;;;;;;;;;;5074255;28;20073;-70
2022/08/09 08:58:04;;;;;;;11.23;9.82;;;;;;;;;;5074392;28;20509;-70
2022/08/09 09:00:31;;;;;;;13.35;10.50;;;;;;;;;;5074477;28;20016;-70
2022/08/09 09:02:58;;;;;;;10.50;8.73;;;;;;;;;;5074274;28;20031;-72
2022/08/09 09:05:24;;;;;;;9.73;8.82;;;;;;;;;;5074314;28;20378;-71
2022/08/09 09:07:51;;;;;;;12.43;9.52;;;;;;;;;;5072586;28;20032;-69
2022/08/09 09:10:18;;;;;;;10.65;9.30;;;;;;;;;;5074151;28;20024;-70
2022/08/09 09:12:45;;;;;;;10.30;9.25;;;;;;;;;;5074104;28;20028;-70
2022/08/09 09:15:11;;;;;;;12.27;11.00;;;;;;;;;;5073988;28;20028;-70
2022/08/09 09:17:37;;;;;;;11.38;9.48;;;;;;;;;;5073848;28;20016;-70
2022/08/09 09:20:11;;;;;;;10.68;9.52;;;;;;;;;;5073833;28;20093;-71
2022/08/09 09:22:57;;;;;;;11.55;10.35;;;;;;;;;;5073841;28;20016;-70
2022/08/09 09:25:55;;;;;;;11.13;9.43;;;;;;;;;;5073870;28;20031;-70
2022/08/09 09:28:21;;;;;;;11.13;10.02;;;;;;;;;;5040210;28;20060;-70
2022/08/09 09:30:55;;;;;;;13.13;9.50;;;;;;;;;;5051394;28;20133;-70
2022/08/09 09:33:29;;;;;;;13.45;9.30;;;;;;;;;;5051485;28;20176;-70
2022/08/09 09:35:59;;;;;;;11.43;9.45;;;;;;;;;;5051263;28;20052;-70
2022/08/09 09:38:45;;;;;;;10.30;8.75;;;;;;;;;;5051276;28;20041;-70
2022/08/09 09:41:20;;;;;;;11.85;9.13;;;;;;;;;;5051310;28;20056;-70
2022/08/09 09:43:46;;;;;;;9.25;8.35;;;;;;;;;;5051163;28;20571;-71
2022/08/09 09:46:12;;;;;;;29.10;17.80;;;;;;;;;;5051296;28;20515;-70
2022/08/09 09:48:38;;;;;;;11.82;9.77;;;;;;;;;;5051165;28;20120;-71
2022/08/09 09:51:04;;;;;;;12.52;9.00;;;;;;;;;;5051345;28;20136;-71
2022/08/09 09:53:30;;;;;;;10.18;9.10;;;;;;;;;;5051091;28;20426;-70
2022/08/09 09:56:00;;;;;;;10.13;9.10;;;;;;;;;;5050988;28;20060;-70
2022/08/09 09:58:47;;;;;;;12.97;9.53;;;;;;;;;;5051069;28;20052;-70
2022/08/09 10:01:20;;;;;;;16.40;10.98;;;;;;;;;;5050975;28;20024;-71
2022/08/09 10:03:50;;;;;;;10.70;9.68;;;;;;;;;;5060681;28;20115;-71
2022/08/09 10:06:17;;;;;;;12.40;10.48;;;;;;;;;;5073330;28;20020;-71
2022/08/09 10:08:44;;;;;;;11.45;10.25;;;;;;;;;;5072957;28;20048;-71
2022/08/09 10:11:31;;;;;;;10.40;9.38;;;;;;;;;;5073112;28;20028;-70
2022/08/09 10:13:57;;;;;;;12.07;10.88;;;;;;;;;;5072804;28;20120;-70
2022/08/09 10:16:27;;;;;;;10.32;9.32;;;;;;;;;;5072904;28;20107;-70
2022/08/09 10:18:54;;;;;;;10.75;9.57;;;;;;;;;;5072591;28;20042;-70
2022/08/09 10:21:22;;;;;;;11.10;10.07;;;;;;;;;;5072381;28;20108;-70
2022/08/09 10:23:52;;;;;;;10.43;9.32;;;;;;;;;;5072930;28;20099;-71
2022/08/09 10:26:20;;;;;;;14.63;11.25;;;;;;;;;;5072889;28;20033;-71
2022/08/09 10:28:46;;;;;;;19.52;17.67;;;;;;;;;;5072861;28;20097;-71
2022/08/09 10:31:13;;;;;;;15.65;10.15;;;;;;;;;;5072637;28;20032;-71
2022/08/09 10:33:39;;;;;;;11.77;10.30;;;;;;;;;;5078735;28;20029;-70
2022/08/09 10:36:06;;;;;;;11.02;9.98;;;;;;;;;;5080414;28;20131;-71
2022/08/09 10:38:32;;;;;;;10.52;9.60;;;;;;;;;;5072609;28;20024;-70
2022/08/09 10:40:59;;;;;;;10.82;9.68;;;;;;;;;;5070976;28;20376;-70
2022/08/09 10:43:26;;;;;;;10.45;9.45;;;;;;;;;;5072526;28;20025;-71
2022/08/09 10:45:52;;;;;;;10.35;9.45;;;;;;;;;;5072596;28;20067;-71
2022/08/09 10:48:37;;;;;;;10.30;9.30;;;;;;;;;;5072210;28;20494;-70
2022/08/09 10:51:13;;;;;;;11.02;8.63;;;;;;;;;;5072658;28;20071;-70
2022/08/09 10:53:58;;;;;;;9.95;9.05;;;;;;;;;;5071640;28;20063;-71
2022/08/09 10:56:28;;;;;;;10.48;9.48;;;;;;;;;;5071214;28;20043;-70
2022/08/09 10:58:55;;;;;;;10.40;9.30;;;;;;;;;;5070859;28;20028;-70
2022/08/09 11:01:30;;;;;;;10.35;9.15;;;;;;;;;;5072476;28;20021;-70
2022/08/09 11:04:09;;;;;;;10.55;9.57;;;;;;;;;;5072143;28;20020;-71
2022/08/09 11:06:39;;;;;;;10.10;9.13;;;;;;;;;;5072514;28;20477;-71
2022/08/09 11:09:05;;;;;;;14.10;11.23;;;;;;;;;;5072320;28;20025;-70
2022/08/09 11:11:50;;;;;;;19.70;17.92;;;;;;;;;;5072204;28;20051;-71
2022/08/09 11:14:37;;;;;;;10.65;9.52;;;;;;;;;;5072270;28;20471;-72
2022/08/09 11:17:26;;;;;;;12.57;11.40;;;;;;;;;;5072304;28;20063;-71
2022/08/09 11:19:52;;;;;;;13.55;11.00;;;;;;;;;;5072171;28;20025;-70
2022/08/09 11:22:19;;;;;;;12.25;10.93;;;;;;;;;;5072184;28;20115;-70
2022/08/09 11:24:57;;;;;;;16.33;10.30;;;;;;;;;;5072415;28;20348;-69
2022/08/09 11:27:29;;;;;;;11.13;9.90;;;;;;;;;;5072207;28;20086;-70
2022/08/09 11:29:56;;;;;;;11.82;10.68;;;;;;;;;;5070893;28;20016;-70
2022/08/09 11:32:40;;;;;;;11.82;9.95;;;;;;;;;;5074339;28;20032;-70
2022/08/09 11:35:20;;;;;;;12.93;9.18;;;;;;;;;;5090033;28;20467;-69
2022/08/09 11:37:47;;;;;;;12.45;9.27;;;;;;;;;;5075718;28;20036;-69
2022/08/09 11:40:32;;;;;;;11.60;10.40;;;;;;;;;;5075694;28;20027;-69
2022/08/09 11:42:59;;;;;;;9.60;8.38;;;;;;;;;;5075510;28;20475;-70
2022/08/09 11:45:28;;;;;;;11.30;10.18;;;;;;;;;;5075605;28;20028;-69
2022/08/09 11:47:56;;;;;;;9.82;8.82;;;;;;;;;;5075652;28;20017;-70
2022/08/09 11:50:23;;;;;;;10.05;9.00;;;;;;;;;;5075503;28;20017;-69
2022/08/09 11:52:58;;;;;;;9.98;8.98;;;;;;;;;;5075355;28;20048;-70
2022/08/09 11:55:31;;;;;;;9.32;8.32;;;;;;;;;;5075495;28;20024;-70
2022/08/09 11:57:58;;;;;;;8.82;7.95;;;;;;;;;;5075591;28;20416;-70
2022/08/09 12:00:24;;;;;;;7.95;7.18;;;;;;;;;;5075404;28;20025;-70
2022/08/09 12:02:50;;;;;;;7.60;6.90;;;;;;;;;;5084083;28;20020;-69
2022/08/09 12:05:17;;;;;;;8.13;6.90;;;;;;;;;;5080713;28;20082;-69
2022/08/09 12:07:43;;;;;;;9.27;7.40;;;;;;;;;;5074045;28;20111;-71
2022/08/09 12:10:10;;;;;;;8.82;6.65;;;;;;;;;;5073825;28;20035;-69
2022/08/09 12:12:47;;;;;;;8.75;7.68;;;;;;;;;;5075116;28;20037;-69
2022/08/09 12:15:23;;;;;;;8.13;6.32;;;;;;;;;;5075201;28;20043;-69
2022/08/09 12:17:50;;;;;;;6.88;6.20;;;;;;;;;;5074927;28;20027;-69
2022/08/09 12:20:18;;;;;;;9.35;6.63;;;;;;;;;;5074944;28;20356;-70
2022/08/09 12:22:44;;;;;;;8.15;5.65;;;;;;;;;;5074929;28;20020;-70
2022/08/09 12:25:14;;;;;;;7.63;6.28;;;;;;;;;;5074962;28;20044;-70
2022/08/09 12:27:41;;;;;;;8.27;5.88;;;;;;;;;;5075034;28;20367;-69
2022/08/09 12:30:07;;;;;;;6.40;5.80;;;;;;;;;;5075137;28;20375;-69
2022/08/09 12:32:34;;;;;;;7.85;7.05;;;;;;;;;;5074677;28;20033;-70
2022/08/09 12:35:01;;;;;;;8.57;6.93;;;;;;;;;;5089097;28;20374;-70
2022/08/09 12:37:31;;;;;;;8.63;7.82;;;;;;;;;;5074638;28;20040;-70
2022/08/09 12:40:01;;;;;;;7.07;6.38;;;;;;;;;;5074686;28;20024;-68
2022/08/09 12:42:27;;;;;;;8.20;7.40;;;;;;;;;;5074622;28;20028;-70
2022/08/09 12:44:53;;;;;;;9.48;7.40;;;;;;;;;;5073799;28;20017;-70
2022/08/09 12:47:20;;;;;;;10.88;7.22;;;;;;;;;;5074617;28;20138;-70
2022/08/09 12:50:16;;;;;;;9.07;8.18;;;;;;;;;;5074231;28;20025;-70
2022/08/09 12:52:51;;;;;;;11.75;8.45;;;;;;;;;;5074217;28;20076;-70
2022/08/09 12:55:24;;;;;;;7.82;7.10;;;;;;;;;;5074401;28;20021;-69
2022/08/09 12:57:50;;;;;;;8.63;7.72;;;;;;;;;;5074747;28;20517;-70
2022/08/09 13:00:24;;;;;;;9.98;8.30;;;;;;;;;;5074157;28;20055;-70
2022/08/09 13:02:54;;;;;;;9.90;8.88;;;;;;;;;;5074217;28;20474;-70
2022/08/09 13:05:21;;;;;;;12.67;8.77;;;;;;;;;;5074284;28;20028;-72
2022/08/09 13:08:06;;;;;;;12.38;11.18;;;;;;;;;;5074124;28;20278;-69
2022/08/09 13:10:42;;;;;;;8.43;7.45;;;;;;;;;;5074024;28;20588;-70
2022/08/09 13:13:08;;;;;;;8.35;7.43;;;;;;;;;;5074019;28;20060;-70
2022/08/09 13:15:34;;;;;;;8.65;7.95;;;;;;;;;;5073834;28;20021;-71
2022/08/09 13:18:03;;;;;;;9.52;8.73;;;;;;;;;;5074085;28;20024;-71
2022/08/09 13:20:34;;;;;;;12.63;9.10;;;;;;;;;;5073755;28;20031;-70
2022/08/09 13:23:00;;;;;;;10.55;9.55;;;;;;;;;;5074139;28;20384;-70
2022/08/09 13:25:36;;;;;;;11.27;9.88;;;;;;;;;;5071846;28;20025;-70
2022/08/09 13:28:08;;;;;;;13.43;11.73;;;;;;;;;;5073640;28;20031;-70
2022/08/09 13:30:35;;;;;;;14.32;12.23;;;;;;;;;;5073763;28;20024;-71
2022/08/09 13:33:01;;;;;;;13.13;12.00;;;;;;;;;;5074370;28;20028;-70
2022/08/09 13:35:27;;;;;;;14.10;12.43;;;;;;;;;;5086623;28;20042;-71
2022/08/09 13:37:56;;;;;;;11.98;10.85;;;;;;;;;;5073721;28;20032;-70
2022/08/09 13:40:23;;;;;;;12.35;11.07;;;;;;;;;;5073442;28;20026;-71
2022/08/09 13:42:49;;;;;;;10.68;9.65;;;;;;;;;;5073398;28;20031;-71
2022/08/09 13:45:16;;;;;;;10.13;9.10;;;;;;;;;;5073285;28;20026;-70
2022/08/09 13:47:42;;;;;;;11.73;10.55;;;;;;;;;;5071851;28;20390;-70
2022/08/09 13:50:08;;;;;;;9.55;8.60;;;;;;;;;;5073070;28;20511;-70
2022/08/09 13:52:34;;;;;;;17.73;11.10;;;;;;;;;;5073197;28;20053;-71
2022/08/09 13:55:01;;;;;;;10.70;8.50;;;;;;;;;;5072239;28;20025;-70
2022/08/09 13:57:32;;;;;;;9.10;8.20;;;;;;;;;;5073270;28;20025;-69
2022/08/09 13:59:58;;;;;;;9.32;8.38;;;;;;;;;;5073217;28;20029;-71
2022/08/09 14:02:24;;;;;;;9.63;8.68;;;;;;;;;;5073119;28;20066;-70
2022/08/09 14:04:50;;;;;;;10.57;8.95;;;;;;;;;;5073157;28;20032;-70
2022/08/09 14:07:16;;;;;;;9.90;9.00;;;;;;;;;;5071526;28;20470;-71
2022/08/09 14:09:42;;;;;;;9.55;8.70;;;;;;;;;;5073105;28;20028;-71
2022/08/09 14:12:08;;;;;;;10.73;9.63;;;;;;;;;;5072774;28;20025;-70
2022/08/09 14:14:34;;;;;;;10.32;9.20;;;;;;;;;;5073014;28;20025;-71
2022/08/09 14:17:00;;;;;;;12.07;9.88;;;;;;;;;;5073089;28;20524;-70
2022/08/09 14:19:26;;;;;;;17.25;15.23;;;;;;;;;;5073158;28;20029;-70
2022/08/09 14:21:53;;;;;;;10.90;9.80;;;;;;;;;;5072917;28;20021;-70
2022/08/09 14:24:19;;;;;;;10.45;9.48;;;;;;;;;;5073464;28;20100;-70
2022/08/09 14:26:46;;;;;;;12.02;10.38;;;;;;;;;;5072704;28;20025;-70
2022/08/09 14:29:14;;;;;;;10.98;9.88;;;;;;;;;;5072985;28;20056;-69
2022/08/09 14:31:40;;;;;;;14.10;10.88;;;;;;;;;;5072904;28;20050;-69
2022/08/09 14:34:06;;;;;;;12.10;10.73;;;;;;;;;;5082741;28;20147;-69